sensor_id;sensor_type;location;lat;lon;timestamp;P1;durP1;ratioP1;P2;durP2;ratioP2
21183;SDS011;18176;49.502;11.754;2023-02-28T00:00:00;7.17;;;4.67;;
21183;SDS011;18176;49.502;11.754;2023-02-28T00:04:10;8.07;;;4.47;;
21183;SDS011;18176;49.502;11.754;2023-02-28T00:08:10;9.33;;;4.50;;
21183;SDS011;18176;49.502;11.754;2023-02-28T00:12:11;8.37;;;3.97;;
21183;SDS011;18176;49.502;11.754;2023-02-28T00:16:13;9.43;;;4.30;;
21183;SDS011;18176;49.502;11.754;2023-02-28T00:20:18;6.83;;;4.00;;
21183;SDS011;18176;49.502;11.754;2023-02-28T00:24:19;8.43;;;4.37;;
21183;SDS011;18176;49.502;11.754;2023-02-28T00:28:20;7.37;;;3.90;;
21183;SDS011;18176;49.502;11.754;2023-02-28T00:32:21;6.83;;;4.17;;
21183;SDS011;18176;49.502;11.754;2023-02-28T00:36:24;8.13;;;4.40;;
21183;SDS011;18176;49.502;11.754;2023-02-28T00:40:25;9.20;;;4.40;;
21183;SDS011;18176;49.502;11.754;2023-02-28T00:44:25;8.53;;;4.53;;
21183;SDS011;18176;49.502;11.754;2023-02-28T00:48:26;7.90;;;4.53;;
21183;SDS011;18176;49.502;11.754;2023-02-28T00:52:30;8.63;;;4.87;;
21183;SDS011;18176;49.502;11.754;2023-02-28T00:56:31;7.63;;;4.60;;
21183;SDS011;18176;49.502;11.754;2023-02-28T01:00:32;7.37;;;4.73;;
21183;SDS011;18176;49.502;11.754;2023-02-28T01:04:33;8.73;;;4.67;;
21183;SDS011;18176;49.502;11.754;2023-02-28T01:08:37;8.83;;;4.47;;
21183;SDS011;18176;49.502;11.754;2023-02-28T01:12:38;9.37;;;4.57;;
21183;SDS011;18176;49.502;11.754;2023-02-28T01:16:38;12.77;;;5.00;;
21183;SDS011;18176;49.502;11.754;2023-02-28T01:20:39;8.70;;;4.80;;
21183;SDS011;18176;49.502;11.754;2023-02-28T01:24:42;11.87;;;5.20;;
21183;SDS011;18176;49.502;11.754;2023-02-28T01:28:44;9.40;;;4.97;;
21183;SDS011;18176;49.502;11.754;2023-02-28T01:32:45;9.43;;;5.27;;
21183;SDS011;18176;49.502;11.754;2023-02-28T01:36:47;8.80;;;5.00;;
21183;SDS011;18176;49.502;11.754;2023-02-28T01:40:50;10.90;;;5.13;;
21183;SDS011;18176;49.502;11.754;2023-02-28T01:44:56;7.77;;;4.60;;
21183;SDS011;18176;49.502;11.754;2023-02-28T01:49:03;9.13;;;4.83;;
21183;SDS011;18176;49.502;11.754;2023-02-28T01:53:10;8.47;;;4.37;;
21183;SDS011;18176;49.502;11.754;2023-02-28T01:57:20;6.20;;;4.23;;
21183;SDS011;18176;49.502;11.754;2023-02-28T02:01:34;8.33;;;4.60;;
21183;SDS011;18176;49.502;11.754;2023-02-28T02:05:35;9.40;;;4.33;;
21183;SDS011;18176;49.502;11.754;2023-02-28T02:09:38;9.07;;;5.13;;
21183;SDS011;18176;49.502;11.754;2023-02-28T02:18:13;9.80;;;4.97;;
21183;SDS011;18176;49.502;11.754;2023-02-28T02:27:20;8.80;;;4.47;;
21183;SDS011;18176;49.502;11.754;2023-02-28T02:31:43;8.97;;;4.97;;
21183;SDS011;18176;49.502;11.754;2023-02-28T02:36:02;8.97;;;5.40;;
21183;SDS011;18176;49.502;11.754;2023-02-28T02:40:13;10.03;;;5.40;;
21183;SDS011;18176;49.502;11.754;2023-02-28T02:44:20;12.43;;;5.53;;
21183;SDS011;18176;49.502;11.754;2023-02-28T02:48:27;11.13;;;5.33;;
21183;SDS011;18176;49.502;11.754;2023-02-28T02:52:38;10.83;;;6.00;;
21183;SDS011;18176;49.502;11.754;2023-02-28T02:56:46;10.33;;;5.80;;
21183;SDS011;18176;49.502;11.754;2023-02-28T03:00:51;10.50;;;5.87;;
21183;SDS011;18176;49.502;11.754;2023-02-28T03:04:57;10.93;;;5.73;;
21183;SDS011;18176;49.502;11.754;2023-02-28T03:09:05;10.43;;;5.97;;
21183;SDS011;18176;49.502;11.754;2023-02-28T03:13:29;12.13;;;6.30;;
21183;SDS011;18176;49.502;11.754;2023-02-28T03:18:01;13.03;;;6.63;;
21183;SDS011;18176;49.502;11.754;2023-02-28T03:22:13;12.40;;;6.80;;
21183;SDS011;18176;49.502;11.754;2023-02-28T03:26:31;12.47;;;6.50;;
21183;SDS011;18176;49.502;11.754;2023-02-28T03:30:42;12.33;;;6.63;;
21183;SDS011;18176;49.502;11.754;2023-02-28T03:34:51;14.77;;;6.83;;
21183;SDS011;18176;49.502;11.754;2023-02-28T03:39:03;12.03;;;6.63;;
21183;SDS011;18176;49.502;11.754;2023-02-28T03:43:12;11.53;;;5.97;;
21183;SDS011;18176;49.502;11.754;2023-02-28T03:47:20;11.50;;;6.60;;
21183;SDS011;18176;49.502;11.754;2023-02-28T03:51:29;14.37;;;7.37;;
21183;SDS011;18176;49.502;11.754;2023-02-28T03:55:33;12.60;;;6.63;;
21183;SDS011;18176;49.502;11.754;2023-02-28T03:59:42;11.30;;;6.60;;
21183;SDS011;18176;49.502;11.754;2023-02-28T04:03:47;12.97;;;6.93;;
21183;SDS011;18176;49.502;11.754;2023-02-28T04:07:49;13.27;;;7.83;;
21183;SDS011;18176;49.502;11.754;2023-02-28T04:11:51;14.10;;;7.60;;
21183;SDS011;18176;49.502;11.754;2023-02-28T04:15:55;14.50;;;7.20;;
21183;SDS011;18176;49.502;11.754;2023-02-28T04:19:56;12.77;;;7.03;;
21183;SDS011;18176;49.502;11.754;2023-02-28T04:23:56;14.83;;;7.30;;
21183;SDS011;18176;49.502;11.754;2023-02-28T04:27:57;14.17;;;7.73;;
21183;SDS011;18176;49.502;11.754;2023-02-28T04:32:01;13.17;;;7.90;;
21183;SDS011;18176;49.502;11.754;2023-02-28T04:36:03;15.60;;;7.83;;
21183;SDS011;18176;49.502;11.754;2023-02-28T04:40:08;16.50;;;8.13;;
21183;SDS011;18176;49.502;11.754;2023-02-28T04:44:10;14.37;;;8.10;;
21183;SDS011;18176;49.502;11.754;2023-02-28T04:48:13;13.83;;;8.77;;
21183;SDS011;18176;49.502;11.754;2023-02-28T04:52:17;15.47;;;8.40;;
21183;SDS011;18176;49.502;11.754;2023-02-28T04:56:18;16.60;;;8.30;;
21183;SDS011;18176;49.502;11.754;2023-02-28T05:00:18;15.10;;;8.67;;
21183;SDS011;18176;49.502;11.754;2023-02-28T05:04:22;17.83;;;9.07;;
21183;SDS011;18176;49.502;11.754;2023-02-28T05:08:24;14.20;;;7.63;;
21183;SDS011;18176;49.502;11.754;2023-02-28T05:12:27;14.33;;;8.13;;
21183;SDS011;18176;49.502;11.754;2023-02-28T05:16:27;14.07;;;8.20;;
21183;SDS011;18176;49.502;11.754;2023-02-28T05:20:31;15.10;;;8.20;;
21183;SDS011;18176;49.502;11.754;2023-02-28T05:24:32;14.83;;;8.13;;
21183;SDS011;18176;49.502;11.754;2023-02-28T05:28:33;52.77;;;21.27;;
21183;SDS011;18176;49.502;11.754;2023-02-28T05:32:33;19.47;;;10.90;;
21183;SDS011;18176;49.502;11.754;2023-02-28T05:36:37;19.73;;;10.30;;
21183;SDS011;18176;49.502;11.754;2023-02-28T05:40:38;15.97;;;8.37;;
21183;SDS011;18176;49.502;11.754;2023-02-28T05:44:39;14.57;;;8.43;;
21183;SDS011;18176;49.502;11.754;2023-02-28T05:48:40;15.37;;;8.27;;
21183;SDS011;18176;49.502;11.754;2023-02-28T05:52:48;18.53;;;9.10;;
21183;SDS011;18176;49.502;11.754;2023-02-28T05:56:49;24.87;;;9.73;;
21183;SDS011;18176;49.502;11.754;2023-02-28T06:00:51;18.63;;;9.37;;
21183;SDS011;18176;49.502;11.754;2023-02-28T06:04:51;17.87;;;9.60;;
21183;SDS011;18176;49.502;11.754;2023-02-28T06:08:55;21.43;;;9.90;;
21183;SDS011;18176;49.502;11.754;2023-02-28T06:12:59;19.73;;;10.40;;
21183;SDS011;18176;49.502;11.754;2023-02-28T06:17:00;18.33;;;9.70;;
21183;SDS011;18176;49.502;11.754;2023-02-28T06:21:01;17.73;;;9.37;;
21183;SDS011;18176;49.502;11.754;2023-02-28T06:25:05;20.03;;;10.80;;
21183;SDS011;18176;49.502;11.754;2023-02-28T06:29:06;24.33;;;11.03;;
21183;SDS011;18176;49.502;11.754;2023-02-28T06:33:08;19.73;;;10.77;;
21183;SDS011;18176;49.502;11.754;2023-02-28T06:37:08;16.97;;;10.07;;
21183;SDS011;18176;49.502;11.754;2023-02-28T06:41:12;20.93;;;10.13;;
21183;SDS011;18176;49.502;11.754;2023-02-28T06:45:12;18.93;;;9.80;;
21183;SDS011;18176;49.502;11.754;2023-02-28T06:49:13;16.43;;;9.03;;
21183;SDS011;18176;49.502;11.754;2023-02-28T06:53:14;18.33;;;10.77;;
21183;SDS011;18176;49.502;11.754;2023-02-28T06:57:17;20.37;;;11.23;;
21183;SDS011;18176;49.502;11.754;2023-02-28T07:01:19;17.90;;;10.33;;
21183;SDS011;18176;49.502;11.754;2023-02-28T07:05:20;20.27;;;12.03;;
21183;SDS011;18176;49.502;11.754;2023-02-28T07:09:21;20.00;;;11.27;;
21183;SDS011;18176;49.502;11.754;2023-02-28T07:13:29;22.37;;;11.93;;
21183;SDS011;18176;49.502;11.754;2023-02-28T07:17:30;19.43;;;9.67;;
21183;SDS011;18176;49.502;11.754;2023-02-28T07:21:32;17.90;;;9.70;;
21183;SDS011;18176;49.502;11.754;2023-02-28T07:25:32;16.77;;;8.93;;
21183;SDS011;18176;49.502;11.754;2023-02-28T07:29:35;16.27;;;9.17;;
21183;SDS011;18176;49.502;11.754;2023-02-28T07:33:36;14.33;;;8.80;;
21183;SDS011;18176;49.502;11.754;2023-02-28T07:37:38;15.23;;;8.67;;
21183;SDS011;18176;49.502;11.754;2023-02-28T07:41:39;15.23;;;9.00;;
21183;SDS011;18176;49.502;11.754;2023-02-28T07:45:43;16.53;;;9.03;;
21183;SDS011;18176;49.502;11.754;2023-02-28T07:49:44;14.50;;;8.10;;
21183;SDS011;18176;49.502;11.754;2023-02-28T07:53:45;14.93;;;8.77;;
21183;SDS011;18176;49.502;11.754;2023-02-28T07:57:46;14.40;;;8.67;;
21183;SDS011;18176;49.502;11.754;2023-02-28T08:01:50;16.57;;;8.97;;
21183;SDS011;18176;49.502;11.754;2023-02-28T08:05:50;13.37;;;8.50;;
21183;SDS011;18176;49.502;11.754;2023-02-28T08:09:52;16.23;;;8.67;;
21183;SDS011;18176;49.502;11.754;2023-02-28T08:13:53;14.67;;;7.80;;
21183;SDS011;18176;49.502;11.754;2023-02-28T08:17:57;11.97;;;7.10;;
21183;SDS011;18176;49.502;11.754;2023-02-28T08:21:58;12.40;;;6.93;;
21183;SDS011;18176;49.502;11.754;2023-02-28T08:25:58;13.40;;;7.73;;
21183;SDS011;18176;49.502;11.754;2023-02-28T08:30:02;10.87;;;6.70;;
21183;SDS011;18176;49.502;11.754;2023-02-28T08:34:07;12.60;;;7.00;;
21183;SDS011;18176;49.502;11.754;2023-02-28T08:38:10;10.57;;;6.40;;
21183;SDS011;18176;49.502;11.754;2023-02-28T08:42:11;10.50;;;6.47;;
21183;SDS011;18176;49.502;11.754;2023-02-28T08:46:12;10.87;;;6.40;;
21183;SDS011;18176;49.502;11.754;2023-02-28T08:50:16;10.50;;;6.23;;
21183;SDS011;18176;49.502;11.754;2023-02-28T08:54:16;10.90;;;6.27;;
21183;SDS011;18176;49.502;11.754;2023-02-28T08:58:17;10.87;;;6.67;;
21183;SDS011;18176;49.502;11.754;2023-02-28T09:02:17;11.17;;;6.43;;
21183;SDS011;18176;49.502;11.754;2023-02-28T09:06:21;15.50;;;6.73;;
21183;SDS011;18176;49.502;11.754;2023-02-28T09:10:25;10.43;;;6.30;;
21183;SDS011;18176;49.502;11.754;2023-02-28T09:14:25;13.00;;;7.10;;
21183;SDS011;18176;49.502;11.754;2023-02-28T09:18:27;11.97;;;6.00;;
21183;SDS011;18176;49.502;11.754;2023-02-28T09:22:32;13.17;;;7.20;;
21183;SDS011;18176;49.502;11.754;2023-02-28T09:26:32;12.37;;;7.13;;
21183;SDS011;18176;49.502;11.754;2023-02-28T09:30:44;13.63;;;6.40;;
21183;SDS011;18176;49.502;11.754;2023-02-28T09:34:48;13.70;;;6.33;;
21183;SDS011;18176;49.502;11.754;2023-02-28T09:38:53;10.50;;;6.40;;
21183;SDS011;18176;49.502;11.754;2023-02-28T09:42:54;10.80;;;6.50;;
21183;SDS011;18176;49.502;11.754;2023-02-28T09:47:05;12.50;;;7.70;;
21183;SDS011;18176;49.502;11.754;2023-02-28T09:51:15;11.03;;;6.87;;
21183;SDS011;18176;49.502;11.754;2023-02-28T09:55:44;12.10;;;7.07;;
21183;SDS011;18176;49.502;11.754;2023-02-28T09:59:55;12.93;;;7.37;;
21183;SDS011;18176;49.502;11.754;2023-02-28T10:04:12;13.23;;;6.80;;
21183;SDS011;18176;49.502;11.754;2023-02-28T10:08:29;10.30;;;6.00;;
21183;SDS011;18176;49.502;11.754;2023-02-28T10:12:42;12.37;;;6.90;;
21183;SDS011;18176;49.502;11.754;2023-02-28T10:16:47;9.63;;;6.60;;
21183;SDS011;18176;49.502;11.754;2023-02-28T10:20:54;10.20;;;6.50;;
21183;SDS011;18176;49.502;11.754;2023-02-28T10:24:57;10.83;;;6.83;;
21183;SDS011;18176;49.502;11.754;2023-02-28T10:29:07;10.87;;;6.90;;
21183;SDS011;18176;49.502;11.754;2023-02-28T10:33:13;11.83;;;6.83;;
21183;SDS011;18176;49.502;11.754;2023-02-28T10:37:22;11.00;;;6.37;;
21183;SDS011;18176;49.502;11.754;2023-02-28T10:41:29;13.13;;;6.43;;
21183;SDS011;18176;49.502;11.754;2023-02-28T10:45:35;10.77;;;6.47;;
21183;SDS011;18176;49.502;11.754;2023-02-28T10:49:36;11.73;;;6.40;;
21183;SDS011;18176;49.502;11.754;2023-02-28T10:53:48;11.07;;;6.40;;
21183;SDS011;18176;49.502;11.754;2023-02-28T10:57:57;10.63;;;6.43;;
21183;SDS011;18176;49.502;11.754;2023-02-28T11:02:08;10.77;;;6.57;;
21183;SDS011;18176;49.502;11.754;2023-02-28T11:06:32;11.77;;;6.40;;
21183;SDS011;18176;49.502;11.754;2023-02-28T11:10:36;10.23;;;6.27;;
21183;SDS011;18176;49.502;11.754;2023-02-28T11:14:40;11.20;;;6.13;;
21183;SDS011;18176;49.502;11.754;2023-02-28T11:18:55;10.57;;;6.80;;
21183;SDS011;18176;49.502;11.754;2023-02-28T11:22:57;11.90;;;6.83;;
21183;SDS011;18176;49.502;11.754;2023-02-28T11:27:05;13.20;;;7.10;;
21183;SDS011;18176;49.502;11.754;2023-02-28T11:31:43;8.77;;;6.70;;
21183;SDS011;18176;49.502;11.754;2023-02-28T11:36:08;12.63;;;7.30;;
21183;SDS011;18176;49.502;11.754;2023-02-28T11:40:17;11.07;;;6.70;;
21183;SDS011;18176;49.502;11.754;2023-02-28T11:44:29;12.33;;;7.50;;
21183;SDS011;18176;49.502;11.754;2023-02-28T11:48:44;13.80;;;7.33;;
21183;SDS011;18176;49.502;11.754;2023-02-28T11:53:10;10.60;;;7.33;;
21183;SDS011;18176;49.502;11.754;2023-02-28T11:57:32;12.93;;;7.50;;
21183;SDS011;18176;49.502;11.754;2023-02-28T12:02:09;10.33;;;7.10;;
21183;SDS011;18176;49.502;11.754;2023-02-28T12:06:32;11.07;;;7.37;;
21183;SDS011;18176;49.502;11.754;2023-02-28T12:10:48;10.40;;;7.13;;
21183;SDS011;18176;49.502;11.754;2023-02-28T12:15:12;12.67;;;8.17;;
21183;SDS011;18176;49.502;11.754;2023-02-28T12:19:40;11.70;;;7.70;;
21183;SDS011;18176;49.502;11.754;2023-02-28T12:24:17;10.45;;;7.53;;
21183;SDS011;18176;49.502;11.754;2023-02-28T12:28:43;10.45;;;7.25;;
21183;SDS011;18176;49.502;11.754;2023-02-28T12:32:54;10.93;;;7.55;;
21183;SDS011;18176;49.502;11.754;2023-02-28T12:37:03;14.88;;;8.32;;
21183;SDS011;18176;49.502;11.754;2023-02-28T12:41:16;12.93;;;7.50;;
21183;SDS011;18176;49.502;11.754;2023-02-28T12:45:31;11.27;;;7.55;;
21183;SDS011;18176;49.502;11.754;2023-02-28T12:49:45;14.23;;;8.90;;
21183;SDS011;18176;49.502;11.754;2023-02-28T12:53:58;13.77;;;8.30;;
21183;SDS011;18176;49.502;11.754;2023-02-28T12:58:13;11.80;;;8.23;;
21183;SDS011;18176;49.502;11.754;2023-02-28T13:07:37;12.60;;;7.43;;
21183;SDS011;18176;49.502;11.754;2023-02-28T13:12:15;10.80;;;7.57;;
21183;SDS011;18176;49.502;11.754;2023-02-28T13:16:17;10.52;;;7.50;;
21183;SDS011;18176;49.502;11.754;2023-02-28T13:20:19;11.85;;;7.05;;
21183;SDS011;18176;49.502;11.754;2023-02-28T13:24:42;9.77;;;7.30;;
21183;SDS011;18176;49.502;11.754;2023-02-28T13:28:59;10.30;;;7.10;;
21183;SDS011;18176;49.502;11.754;2023-02-28T13:37:34;11.73;;;7.67;;
21183;SDS011;18176;49.502;11.754;2023-02-28T13:41:48;11.00;;;7.28;;
21183;SDS011;18176;49.502;11.754;2023-02-28T13:46:09;10.52;;;7.43;;
21183;SDS011;18176;49.502;11.754;2023-02-28T13:50:15;13.80;;;7.80;;
21183;SDS011;18176;49.502;11.754;2023-02-28T13:54:29;11.20;;;7.93;;
21183;SDS011;18176;49.502;11.754;2023-02-28T13:58:52;10.13;;;7.93;;
21183;SDS011;18176;49.502;11.754;2023-02-28T14:03:09;10.87;;;7.20;;
21183;SDS011;18176;49.502;11.754;2023-02-28T14:07:33;10.47;;;7.73;;
21183;SDS011;18176;49.502;11.754;2023-02-28T14:11:52;10.60;;;7.53;;
21183;SDS011;18176;49.502;11.754;2023-02-28T14:15:59;11.77;;;7.70;;
21183;SDS011;18176;49.502;11.754;2023-02-28T14:20:12;10.32;;;7.95;;
21183;SDS011;18176;49.502;11.754;2023-02-28T14:24:22;10.13;;;7.40;;
21183;SDS011;18176;49.502;11.754;2023-02-28T14:29:24;8.85;;;6.78;;
21183;SDS011;18176;49.502;11.754;2023-02-28T14:38:51;11.88;;;8.18;;
21183;SDS011;18176;49.502;11.754;2023-02-28T14:42:57;10.13;;;7.10;;
21183;SDS011;18176;49.502;11.754;2023-02-28T14:47:01;12.13;;;8.07;;
21183;SDS011;18176;49.502;11.754;2023-02-28T14:51:08;12.13;;;8.30;;
21183;SDS011;18176;49.502;11.754;2023-02-28T14:55:14;12.07;;;8.53;;
21183;SDS011;18176;49.502;11.754;2023-02-28T14:59:24;12.07;;;8.20;;
21183;SDS011;18176;49.502;11.754;2023-02-28T15:03:32;12.00;;;7.77;;
21183;SDS011;18176;49.502;11.754;2023-02-28T15:07:38;12.63;;;8.07;;
21183;SDS011;18176;49.502;11.754;2023-02-28T15:11:39;12.67;;;7.90;;
21183;SDS011;18176;49.502;11.754;2023-02-28T15:15:45;12.57;;;8.17;;
21183;SDS011;18176;49.502;11.754;2023-02-28T15:19:59;12.17;;;8.43;;
21183;SDS011;18176;49.502;11.754;2023-02-28T15:24:08;13.93;;;8.33;;
21183;SDS011;18176;49.502;11.754;2023-02-28T15:28:20;13.77;;;8.47;;
21183;SDS011;18176;49.502;11.754;2023-02-28T15:32:26;14.87;;;8.93;;
21183;SDS011;18176;49.502;11.754;2023-02-28T15:36:30;13.40;;;8.30;;
21183;SDS011;18176;49.502;11.754;2023-02-28T15:40:40;13.70;;;8.00;;
21183;SDS011;18176;49.502;11.754;2023-02-28T15:44:50;13.77;;;8.10;;
21183;SDS011;18176;49.502;11.754;2023-02-28T15:48:51;12.40;;;8.30;;
21183;SDS011;18176;49.502;11.754;2023-02-28T15:52:55;13.97;;;8.03;;
21183;SDS011;18176;49.502;11.754;2023-02-28T15:57:00;12.10;;;8.60;;
21183;SDS011;18176;49.502;11.754;2023-02-28T16:01:07;15.20;;;8.43;;
21183;SDS011;18176;49.502;11.754;2023-02-28T16:05:19;16.37;;;9.13;;
21183;SDS011;18176;49.502;11.754;2023-02-28T16:09:28;15.23;;;8.47;;
21183;SDS011;18176;49.502;11.754;2023-02-28T16:13:33;13.60;;;8.03;;
21183;SDS011;18176;49.502;11.754;2023-02-28T16:17:35;14.73;;;8.53;;
21183;SDS011;18176;49.502;11.754;2023-02-28T16:21:38;13.80;;;8.57;;
21183;SDS011;18176;49.502;11.754;2023-02-28T16:25:42;13.03;;;8.60;;
21183;SDS011;18176;49.502;11.754;2023-02-28T16:29:47;12.60;;;8.17;;
21183;SDS011;18176;49.502;11.754;2023-02-28T16:33:47;15.17;;;8.53;;
21183;SDS011;18176;49.502;11.754;2023-02-28T16:37:48;12.90;;;8.67;;
21183;SDS011;18176;49.502;11.754;2023-02-28T16:41:52;14.87;;;8.70;;
21183;SDS011;18176;49.502;11.754;2023-02-28T16:45:56;15.73;;;8.80;;
21183;SDS011;18176;49.502;11.754;2023-02-28T16:49:58;13.70;;;8.90;;
21183;SDS011;18176;49.502;11.754;2023-02-28T16:53:58;16.93;;;9.97;;
21183;SDS011;18176;49.502;11.754;2023-02-28T16:57:59;16.10;;;9.77;;
21183;SDS011;18176;49.502;11.754;2023-02-28T17:02:04;19.90;;;11.80;;
21183;SDS011;18176;49.502;11.754;2023-02-28T17:06:16;20.43;;;10.40;;
21183;SDS011;18176;49.502;11.754;2023-02-28T17:10:20;15.13;;;10.03;;
21183;SDS011;18176;49.502;11.754;2023-02-28T17:14:24;18.20;;;11.03;;
21183;SDS011;18176;49.502;11.754;2023-02-28T17:18:27;32.47;;;13.20;;
21183;SDS011;18176;49.502;11.754;2023-02-28T17:22:30;28.77;;;14.47;;
21183;SDS011;18176;49.502;11.754;2023-02-28T17:26:31;23.30;;;13.30;;
21183;SDS011;18176;49.502;11.754;2023-02-28T17:30:32;23.93;;;12.17;;
21183;SDS011;18176;49.502;11.754;2023-02-28T17:34:36;25.97;;;13.27;;
21183;SDS011;18176;49.502;11.754;2023-02-28T17:38:37;20.50;;;11.17;;
21183;SDS011;18176;49.502;11.754;2023-02-28T17:42:38;33.83;;;16.70;;
21183;SDS011;18176;49.502;11.754;2023-02-28T17:46:38;28.13;;;14.90;;
21183;SDS011;18176;49.502;11.754;2023-02-28T17:50:42;25.27;;;13.63;;
21183;SDS011;18176;49.502;11.754;2023-02-28T17:54:43;23.67;;;12.83;;
21183;SDS011;18176;49.502;11.754;2023-02-28T17:58:43;24.10;;;13.20;;
21183;SDS011;18176;49.502;11.754;2023-02-28T18:02:44;25.67;;;13.67;;
21183;SDS011;18176;49.502;11.754;2023-02-28T18:06:48;24.50;;;13.20;;
21183;SDS011;18176;49.502;11.754;2023-02-28T18:10:49;25.17;;;13.63;;
21183;SDS011;18176;49.502;11.754;2023-02-28T18:14:49;31.80;;;16.77;;
21183;SDS011;18176;49.502;11.754;2023-02-28T18:18:50;33.47;;;17.30;;
21183;SDS011;18176;49.502;11.754;2023-02-28T18:22:53;25.73;;;13.70;;
21183;SDS011;18176;49.502;11.754;2023-02-28T18:26:56;27.47;;;15.93;;
21183;SDS011;18176;49.502;11.754;2023-02-28T18:30:57;22.93;;;13.23;;
21183;SDS011;18176;49.502;11.754;2023-02-28T18:35:05;23.33;;;14.37;;
21183;SDS011;18176;49.502;11.754;2023-02-28T18:39:10;22.53;;;12.60;;
21183;SDS011;18176;49.502;11.754;2023-02-28T18:43:11;22.47;;;12.60;;
21183;SDS011;18176;49.502;11.754;2023-02-28T18:47:12;20.07;;;12.83;;
21183;SDS011;18176;49.502;11.754;2023-02-28T18:51:13;24.67;;;14.50;;
21183;SDS011;18176;49.502;11.754;2023-02-28T18:55:19;30.27;;;15.47;;
21183;SDS011;18176;49.502;11.754;2023-02-28T18:59:19;30.77;;;16.33;;
21183;SDS011;18176;49.502;11.754;2023-02-28T19:03:20;26.93;;;14.97;;
21183;SDS011;18176;49.502;11.754;2023-02-28T19:07:20;30.93;;;15.07;;
21183;SDS011;18176;49.502;11.754;2023-02-28T19:11:24;30.47;;;14.83;;
21183;SDS011;18176;49.502;11.754;2023-02-28T19:15:25;28.10;;;14.20;;
21183;SDS011;18176;49.502;11.754;2023-02-28T19:19:25;26.53;;;14.00;;
21183;SDS011;18176;49.502;11.754;2023-02-28T19:23:27;24.20;;;13.23;;
21183;SDS011;18176;49.502;11.754;2023-02-28T19:27:33;21.03;;;12.17;;
21183;SDS011;18176;49.502;11.754;2023-02-28T19:31:34;21.20;;;11.50;;
21183;SDS011;18176;49.502;11.754;2023-02-28T19:35:34;19.20;;;11.90;;
21183;SDS011;18176;49.502;11.754;2023-02-28T19:39:35;19.83;;;11.73;;
21183;SDS011;18176;49.502;11.754;2023-02-28T19:43:42;22.07;;;11.67;;
21183;SDS011;18176;49.502;11.754;2023-02-28T19:47:42;22.10;;;11.50;;
21183;SDS011;18176;49.502;11.754;2023-02-28T19:51:43;25.67;;;12.97;;
21183;SDS011;18176;49.502;11.754;2023-02-28T19:55:45;23.73;;;12.27;;
21183;SDS011;18176;49.502;11.754;2023-02-28T19:59:50;20.87;;;12.57;;
21183;SDS011;18176;49.502;11.754;2023-02-28T20:03:50;24.87;;;13.30;;
21183;SDS011;18176;49.502;11.754;2023-02-28T20:07:51;22.37;;;12.30;;
21183;SDS011;18176;49.502;11.754;2023-02-28T20:11:52;26.17;;;13.50;;
21183;SDS011;18176;49.502;11.754;2023-02-28T20:16:00;21.03;;;12.23;;
21183;SDS011;18176;49.502;11.754;2023-02-28T20:20:05;23.17;;;12.47;;
21183;SDS011;18176;49.502;11.754;2023-02-28T20:24:07;23.80;;;12.97;;
21183;SDS011;18176;49.502;11.754;2023-02-28T20:28:09;26.93;;;15.47;;
21183;SDS011;18176;49.502;11.754;2023-02-28T20:32:12;27.53;;;14.87;;
21183;SDS011;18176;49.502;11.754;2023-02-28T20:36:12;31.73;;;15.00;;
21183;SDS011;18176;49.502;11.754;2023-02-28T20:40:15;22.73;;;13.03;;
21183;SDS011;18176;49.502;11.754;2023-02-28T20:44:16;25.33;;;14.10;;
21183;SDS011;18176;49.502;11.754;2023-02-28T20:48:19;27.73;;;14.17;;
21183;SDS011;18176;49.502;11.754;2023-02-28T20:52:20;24.53;;;13.90;;
21183;SDS011;18176;49.502;11.754;2023-02-28T20:56:21;28.00;;;15.30;;
21183;SDS011;18176;49.502;11.754;2023-02-28T21:00:22;28.20;;;15.67;;
21183;SDS011;18176;49.502;11.754;2023-02-28T21:04:27;28.43;;;15.20;;
21183;SDS011;18176;49.502;11.754;2023-02-28T21:08:27;28.83;;;14.90;;
21183;SDS011;18176;49.502;11.754;2023-02-28T21:12:28;30.80;;;16.33;;
21183;SDS011;18176;49.502;11.754;2023-02-28T21:16:29;29.60;;;16.77;;
21183;SDS011;18176;49.502;11.754;2023-02-28T21:20:36;29.53;;;16.77;;
21183;SDS011;18176;49.502;11.754;2023-02-28T21:24:36;28.63;;;16.07;;
21183;SDS011;18176;49.502;11.754;2023-02-28T21:28:38;29.87;;;17.00;;
21183;SDS011;18176;49.502;11.754;2023-02-28T21:32:39;30.17;;;15.40;;
21183;SDS011;18176;49.502;11.754;2023-02-28T21:36:43;28.30;;;15.23;;
21183;SDS011;18176;49.502;11.754;2023-02-28T21:40:44;27.13;;;14.73;;
21183;SDS011;18176;49.502;11.754;2023-02-28T21:44:47;31.73;;;16.07;;
21183;SDS011;18176;49.502;11.754;2023-02-28T21:48:48;31.47;;;18.20;;
21183;SDS011;18176;49.502;11.754;2023-02-28T21:52:51;35.00;;;16.47;;
21183;SDS011;18176;49.502;11.754;2023-02-28T21:56:51;26.97;;;14.00;;
21183;SDS011;18176;49.502;11.754;2023-02-28T22:01:02;26.57;;;14.00;;
21183;SDS011;18176;49.502;11.754;2023-02-28T22:05:04;26.07;;;13.60;;
21183;SDS011;18176;49.502;11.754;2023-02-28T22:09:08;25.33;;;13.27;;
21183;SDS011;18176;49.502;11.754;2023-02-28T22:13:09;25.67;;;14.40;;
21183;SDS011;18176;49.502;11.754;2023-02-28T22:17:09;27.00;;;13.90;;
21183;SDS011;18176;49.502;11.754;2023-02-28T22:21:10;25.47;;;12.93;;
21183;SDS011;18176;49.502;11.754;2023-02-28T22:25:15;26.73;;;13.80;;
21183;SDS011;18176;49.502;11.754;2023-02-28T22:29:16;26.93;;;13.90;;
21183;SDS011;18176;49.502;11.754;2023-02-28T22:33:17;31.30;;;15.27;;
21183;SDS011;18176;49.502;11.754;2023-02-28T22:37:18;30.87;;;14.53;;
21183;SDS011;18176;49.502;11.754;2023-02-28T22:41:21;33.17;;;15.27;;
21183;SDS011;18176;49.502;11.754;2023-02-28T22:45:22;27.03;;;14.10;;
21183;SDS011;18176;49.502;11.754;2023-02-28T22:49:22;30.13;;;14.93;;
21183;SDS011;18176;49.502;11.754;2023-02-28T22:53:23;28.50;;;14.70;;
21183;SDS011;18176;49.502;11.754;2023-02-28T22:57:27;30.73;;;14.60;;
21183;SDS011;18176;49.502;11.754;2023-02-28T23:01:29;28.17;;;13.60;;
21183;SDS011;18176;49.502;11.754;2023-02-28T23:05:32;33.70;;;14.53;;
21183;SDS011;18176;49.502;11.754;2023-02-28T23:09:32;24.57;;;13.13;;
21183;SDS011;18176;49.502;11.754;2023-02-28T23:13:35;28.13;;;14.57;;
21183;SDS011;18176;49.502;11.754;2023-02-28T23:17:36;26.50;;;13.43;;
21183;SDS011;18176;49.502;11.754;2023-02-28T23:21:37;27.40;;;13.30;;
21183;SDS011;18176;49.502;11.754;2023-02-28T23:25:38;31.10;;;15.13;;
21183;SDS011;18176;49.502;11.754;2023-02-28T23:29:43;28.33;;;14.80;;
21183;SDS011;18176;49.502;11.754;2023-02-28T23:33:43;28.43;;;14.07;;
21183;SDS011;18176;49.502;11.754;2023-02-28T23:37:43;28.50;;;14.80;;
21183;SDS011;18176;49.502;11.754;2023-02-28T23:41:44;30.10;;;15.13;;
21183;SDS011;18176;49.502;11.754;2023-02-28T23:45:55;28.77;;;14.80;;
21183;SDS011;18176;49.502;11.754;2023-02-28T23:49:56;30.40;;;14.87;;
21183;SDS011;18176;49.502;11.754;2023-02-28T23:53:57;28.27;;;15.10;;
21183;SDS011;18176;49.502;11.754;2023-02-28T23:57:59;29.73;;;15.23;;
